Tekakwitha, South Dakota
Current Conditions -  °F | °C
As of 7:56 PM on Saturday 20 Dec 2014 (Local Time) from KETH Reporting Station
Overcast Overcast  
Wind Chill: -8°   Ceiling: 900
Heat Index: -2°   Visibility: 7mi
Dew Point: -3°   Wind: 15mph
Humidity: 93%   Direction: 150°SSE
Pressure: 29.97"   Gusts: 20mph
Location:  45.7041°N, 96.9842°W
Report Text: KETH 210156Z AUTO 15013G17KT 7SM OVC009 M02/M03 A2997 RMK AO2
Loading
Personal Weather Stations






























Interactive Weather Map New forecast layout! Learn more

10-Day Weather Forecast

Advertisements
Track Severe Weather on mobile